sensor_id;sensor_type;location;lat;lon;timestamp;P1;durP1;ratioP1;P2;durP2;ratioP2
32475;SDS011;18929;48.008;10.882;2022-10-28T00:00:53;4.88;;;2.40;;
32475;SDS011;18929;48.008;10.882;2022-10-28T00:03:21;7.00;;;2.60;;
32475;SDS011;18929;48.008;10.882;2022-10-28T00:05:48;7.97;;;2.70;;
32475;SDS011;18929;48.008;10.882;2022-10-28T00:08:15;4.55;;;2.45;;
32475;SDS011;18929;48.008;10.882;2022-10-28T00:10:43;7.10;;;2.95;;
32475;SDS011;18929;48.008;10.882;2022-10-28T00:13:10;5.47;;;2.33;;
32475;SDS011;18929;48.008;10.882;2022-10-28T00:15:37;4.57;;;2.45;;
32475;SDS011;18929;48.008;10.882;2022-10-28T00:18:04;6.70;;;2.35;;
32475;SDS011;18929;48.008;10.882;2022-10-28T00:20:31;6.07;;;2.05;;
32475;SDS011;18929;48.008;10.882;2022-10-28T00:22:58;4.75;;;1.90;;
32475;SDS011;18929;48.008;10.882;2022-10-28T00:25:25;6.10;;;2.20;;
32475;SDS011;18929;48.008;10.882;2022-10-28T00:27:53;7.07;;;2.60;;
32475;SDS011;18929;48.008;10.882;2022-10-28T00:30:20;6.03;;;2.47;;
32475;SDS011;18929;48.008;10.882;2022-10-28T00:32:47;8.00;;;2.20;;
32475;SDS011;18929;48.008;10.882;2022-10-28T00:35:15;7.00;;;2.45;;
32475;SDS011;18929;48.008;10.882;2022-10-28T00:37:42;5.45;;;2.10;;
32475;SDS011;18929;48.008;10.882;2022-10-28T00:40:09;3.88;;;2.28;;
32475;SDS011;18929;48.008;10.882;2022-10-28T00:42:37;8.82;;;2.30;;
32475;SDS011;18929;48.008;10.882;2022-10-28T00:45:07;4.95;;;2.15;;
32475;SDS011;18929;48.008;10.882;2022-10-28T00:47:37;4.53;;;2.10;;
32475;SDS011;18929;48.008;10.882;2022-10-28T00:50:14;7.25;;;2.20;;
32475;SDS011;18929;48.008;10.882;2022-10-28T00:52:47;6.70;;;2.20;;
32475;SDS011;18929;48.008;10.882;2022-10-28T00:55:18;7.22;;;2.88;;
32475;SDS011;18929;48.008;10.882;2022-10-28T00:57:47;6.22;;;2.30;;
32475;SDS011;18929;48.008;10.882;2022-10-28T01:00:16;5.00;;;2.22;;
32475;SDS011;18929;48.008;10.882;2022-10-28T01:02:44;5.90;;;2.55;;
32475;SDS011;18929;48.008;10.882;2022-10-28T01:05:14;4.07;;;2.30;;
32475;SDS011;18929;48.008;10.882;2022-10-28T01:07:44;8.13;;;2.47;;
32475;SDS011;18929;48.008;10.882;2022-10-28T01:10:11;10.20;;;2.78;;
32475;SDS011;18929;48.008;10.882;2022-10-28T01:12:44;9.68;;;2.35;;
32475;SDS011;18929;48.008;10.882;2022-10-28T01:15:24;9.85;;;2.25;;
32475;SDS011;18929;48.008;10.882;2022-10-28T01:18:01;8.02;;;2.35;;
32475;SDS011;18929;48.008;10.882;2022-10-28T01:20:50;5.60;;;2.33;;
32475;SDS011;18929;48.008;10.882;2022-10-28T01:23:32;5.97;;;2.70;;
32475;SDS011;18929;48.008;10.882;2022-10-28T01:26:12;5.90;;;2.40;;
32475;SDS011;18929;48.008;10.882;2022-10-28T01:31:59;7.88;;;2.22;;
32475;SDS011;18929;48.008;10.882;2022-10-28T01:34:31;8.75;;;2.35;;
32475;SDS011;18929;48.008;10.882;2022-10-28T01:37:05;5.03;;;2.05;;
32475;SDS011;18929;48.008;10.882;2022-10-28T01:39:41;7.53;;;2.40;;
32475;SDS011;18929;48.008;10.882;2022-10-28T01:42:12;7.75;;;2.30;;
32475;SDS011;18929;48.008;10.882;2022-10-28T01:44:47;6.75;;;2.70;;
32475;SDS011;18929;48.008;10.882;2022-10-28T01:47:21;6.57;;;2.20;;
32475;SDS011;18929;48.008;10.882;2022-10-28T01:49:53;6.85;;;2.40;;
32475;SDS011;18929;48.008;10.882;2022-10-28T01:52:24;7.75;;;2.38;;
32475;SDS011;18929;48.008;10.882;2022-10-28T01:54:56;6.13;;;2.10;;
32475;SDS011;18929;48.008;10.882;2022-10-28T01:57:27;3.75;;;2.17;;
32475;SDS011;18929;48.008;10.882;2022-10-28T01:59:56;6.50;;;2.35;;
32475;SDS011;18929;48.008;10.882;2022-10-28T02:02:28;5.53;;;2.33;;
32475;SDS011;18929;48.008;10.882;2022-10-28T02:05:02;5.75;;;2.40;;
32475;SDS011;18929;48.008;10.882;2022-10-28T02:07:30;3.92;;;1.92;;
32475;SDS011;18929;48.008;10.882;2022-10-28T02:10:00;4.13;;;2.10;;
32475;SDS011;18929;48.008;10.882;2022-10-28T02:12:34;5.35;;;1.65;;
32475;SDS011;18929;48.008;10.882;2022-10-28T02:15:13;6.43;;;2.17;;
32475;SDS011;18929;48.008;10.882;2022-10-28T02:17:55;6.38;;;1.60;;
32475;SDS011;18929;48.008;10.882;2022-10-28T02:20:48;6.85;;;2.33;;
32475;SDS011;18929;48.008;10.882;2022-10-28T02:23:20;6.50;;;2.20;;
32475;SDS011;18929;48.008;10.882;2022-10-28T02:25:55;8.73;;;2.20;;
32475;SDS011;18929;48.008;10.882;2022-10-28T02:28:28;10.93;;;2.00;;
32475;SDS011;18929;48.008;10.882;2022-10-28T02:31:02;6.07;;;1.92;;
32475;SDS011;18929;48.008;10.882;2022-10-28T02:33:34;4.72;;;1.73;;
32475;SDS011;18929;48.008;10.882;2022-10-28T02:36:05;5.25;;;2.00;;
32475;SDS011;18929;48.008;10.882;2022-10-28T02:38:37;4.00;;;2.00;;
32475;SDS011;18929;48.008;10.882;2022-10-28T02:41:08;5.43;;;2.08;;
32475;SDS011;18929;48.008;10.882;2022-10-28T02:43:39;9.18;;;2.38;;
32475;SDS011;18929;48.008;10.882;2022-10-28T02:46:08;6.40;;;1.90;;
32475;SDS011;18929;48.008;10.882;2022-10-28T02:48:40;5.13;;;2.35;;
32475;SDS011;18929;48.008;10.882;2022-10-28T02:51:11;6.55;;;2.45;;
32475;SDS011;18929;48.008;10.882;2022-10-28T02:53:44;5.68;;;1.75;;
32475;SDS011;18929;48.008;10.882;2022-10-28T02:56:18;5.50;;;2.08;;
32475;SDS011;18929;48.008;10.882;2022-10-28T02:58:46;6.82;;;1.77;;
32475;SDS011;18929;48.008;10.882;2022-10-28T03:01:14;5.60;;;2.15;;
32475;SDS011;18929;48.008;10.882;2022-10-28T03:03:42;6.72;;;2.00;;
32475;SDS011;18929;48.008;10.882;2022-10-28T03:06:09;4.13;;;1.75;;
32475;SDS011;18929;48.008;10.882;2022-10-28T03:08:36;4.97;;;1.92;;
32475;SDS011;18929;48.008;10.882;2022-10-28T03:11:03;4.78;;;1.50;;
32475;SDS011;18929;48.008;10.882;2022-10-28T03:13:30;5.88;;;1.85;;
32475;SDS011;18929;48.008;10.882;2022-10-28T03:15:57;5.78;;;2.08;;
32475;SDS011;18929;48.008;10.882;2022-10-28T03:18:24;5.50;;;1.77;;
32475;SDS011;18929;48.008;10.882;2022-10-28T03:20:52;3.53;;;2.00;;
32475;SDS011;18929;48.008;10.882;2022-10-28T03:23:19;6.28;;;1.80;;
32475;SDS011;18929;48.008;10.882;2022-10-28T03:25:46;3.08;;;1.60;;
32475;SDS011;18929;48.008;10.882;2022-10-28T03:28:13;5.53;;;1.88;;
32475;SDS011;18929;48.008;10.882;2022-10-28T03:30:41;8.30;;;1.73;;
32475;SDS011;18929;48.008;10.882;2022-10-28T03:33:08;6.97;;;1.90;;
32475;SDS011;18929;48.008;10.882;2022-10-28T03:35:35;5.50;;;1.70;;
32475;SDS011;18929;48.008;10.882;2022-10-28T03:38:03;7.07;;;1.80;;
32475;SDS011;18929;48.008;10.882;2022-10-28T03:40:30;7.22;;;1.80;;
32475;SDS011;18929;48.008;10.882;2022-10-28T03:42:58;7.25;;;2.08;;
32475;SDS011;18929;48.008;10.882;2022-10-28T03:45:25;8.30;;;1.45;;
32475;SDS011;18929;48.008;10.882;2022-10-28T03:47:52;4.55;;;1.45;;
32475;SDS011;18929;48.008;10.882;2022-10-28T03:50:19;7.68;;;1.60;;
32475;SDS011;18929;48.008;10.882;2022-10-28T03:52:46;9.73;;;1.70;;
32475;SDS011;18929;48.008;10.882;2022-10-28T03:55:15;6.80;;;1.80;;
32475;SDS011;18929;48.008;10.882;2022-10-28T03:57:42;3.88;;;1.65;;
32475;SDS011;18929;48.008;10.882;2022-10-28T04:00:09;7.30;;;1.50;;
32475;SDS011;18929;48.008;10.882;2022-10-28T04:02:38;5.05;;;1.55;;
32475;SDS011;18929;48.008;10.882;2022-10-28T04:05:05;4.95;;;1.77;;
32475;SDS011;18929;48.008;10.882;2022-10-28T04:07:33;7.10;;;1.73;;
32475;SDS011;18929;48.008;10.882;2022-10-28T04:10:00;5.57;;;1.70;;
32475;SDS011;18929;48.008;10.882;2022-10-28T04:12:28;5.45;;;1.90;;
32475;SDS011;18929;48.008;10.882;2022-10-28T04:14:55;5.15;;;1.98;;
32475;SDS011;18929;48.008;10.882;2022-10-28T04:17:22;3.65;;;1.30;;
32475;SDS011;18929;48.008;10.882;2022-10-28T04:19:49;3.92;;;1.55;;
32475;SDS011;18929;48.008;10.882;2022-10-28T04:22:16;5.75;;;1.77;;
32475;SDS011;18929;48.008;10.882;2022-10-28T04:24:43;8.98;;;2.28;;
32475;SDS011;18929;48.008;10.882;2022-10-28T04:27:10;5.85;;;1.38;;
32475;SDS011;18929;48.008;10.882;2022-10-28T04:29:39;6.35;;;1.77;;
32475;SDS011;18929;48.008;10.882;2022-10-28T04:32:06;7.35;;;1.60;;
32475;SDS011;18929;48.008;10.882;2022-10-28T04:34:34;3.33;;;1.40;;
32475;SDS011;18929;48.008;10.882;2022-10-28T04:37:01;7.95;;;1.67;;
32475;SDS011;18929;48.008;10.882;2022-10-28T04:39:28;4.80;;;1.38;;
32475;SDS011;18929;48.008;10.882;2022-10-28T04:41:55;5.13;;;1.50;;
32475;SDS011;18929;48.008;10.882;2022-10-28T04:44:22;4.60;;;1.50;;
32475;SDS011;18929;48.008;10.882;2022-10-28T04:46:50;5.13;;;1.35;;
32475;SDS011;18929;48.008;10.882;2022-10-28T04:49:17;4.20;;;1.80;;
32475;SDS011;18929;48.008;10.882;2022-10-28T04:51:44;6.13;;;1.48;;
32475;SDS011;18929;48.008;10.882;2022-10-28T04:54:11;5.70;;;2.00;;
32475;SDS011;18929;48.008;10.882;2022-10-28T04:56:38;4.93;;;1.75;;
32475;SDS011;18929;48.008;10.882;2022-10-28T04:59:05;9.13;;;1.85;;
32475;SDS011;18929;48.008;10.882;2022-10-28T05:01:33;4.75;;;1.40;;
32475;SDS011;18929;48.008;10.882;2022-10-28T05:04:01;6.03;;;1.75;;
32475;SDS011;18929;48.008;10.882;2022-10-28T05:06:28;8.45;;;1.70;;
32475;SDS011;18929;48.008;10.882;2022-10-28T05:08:55;4.22;;;1.50;;
32475;SDS011;18929;48.008;10.882;2022-10-28T05:11:22;5.95;;;1.65;;
32475;SDS011;18929;48.008;10.882;2022-10-28T05:14:05;9.32;;;1.88;;
32475;SDS011;18929;48.008;10.882;2022-10-28T05:16:32;8.00;;;2.15;;
32475;SDS011;18929;48.008;10.882;2022-10-28T05:19:00;5.80;;;2.30;;
32475;SDS011;18929;48.008;10.882;2022-10-28T05:21:27;4.22;;;1.80;;
32475;SDS011;18929;48.008;10.882;2022-10-28T05:23:54;7.65;;;1.90;;
32475;SDS011;18929;48.008;10.882;2022-10-28T05:26:21;10.50;;;2.00;;
32475;SDS011;18929;48.008;10.882;2022-10-28T05:28:48;9.55;;;1.70;;
32475;SDS011;18929;48.008;10.882;2022-10-28T05:31:15;6.28;;;1.42;;
32475;SDS011;18929;48.008;10.882;2022-10-28T05:33:43;6.93;;;1.80;;
32475;SDS011;18929;48.008;10.882;2022-10-28T05:36:11;10.23;;;1.98;;
32475;SDS011;18929;48.008;10.882;2022-10-28T05:38:38;7.22;;;1.98;;
32475;SDS011;18929;48.008;10.882;2022-10-28T05:41:06;7.32;;;1.65;;
32475;SDS011;18929;48.008;10.882;2022-10-28T05:43:36;12.75;;;2.00;;
32475;SDS011;18929;48.008;10.882;2022-10-28T05:46:03;5.40;;;1.58;;
32475;SDS011;18929;48.008;10.882;2022-10-28T05:48:30;6.78;;;1.88;;
32475;SDS011;18929;48.008;10.882;2022-10-28T05:50:57;5.78;;;1.60;;
32475;SDS011;18929;48.008;10.882;2022-10-28T05:53:26;4.25;;;1.77;;
32475;SDS011;18929;48.008;10.882;2022-10-28T05:55:53;7.35;;;2.00;;
32475;SDS011;18929;48.008;10.882;2022-10-28T05:58:20;4.88;;;1.67;;
32475;SDS011;18929;48.008;10.882;2022-10-28T06:00:47;7.05;;;1.63;;
32475;SDS011;18929;48.008;10.882;2022-10-28T06:03:14;7.40;;;2.28;;
32475;SDS011;18929;48.008;10.882;2022-10-28T06:05:41;8.88;;;2.45;;
32475;SDS011;18929;48.008;10.882;2022-10-28T06:08:10;4.38;;;2.17;;
32475;SDS011;18929;48.008;10.882;2022-10-28T06:10:39;4.13;;;2.20;;
32475;SDS011;18929;48.008;10.882;2022-10-28T06:13:07;7.13;;;2.78;;
32475;SDS011;18929;48.008;10.882;2022-10-28T06:15:34;10.50;;;3.65;;
32475;SDS011;18929;48.008;10.882;2022-10-28T06:18:01;5.50;;;2.60;;
32475;SDS011;18929;48.008;10.882;2022-10-28T06:20:28;5.60;;;3.15;;
32475;SDS011;18929;48.008;10.882;2022-10-28T06:22:55;5.90;;;2.55;;
32475;SDS011;18929;48.008;10.882;2022-10-28T06:25:23;7.75;;;2.80;;
32475;SDS011;18929;48.008;10.882;2022-10-28T06:27:53;6.57;;;2.83;;
32475;SDS011;18929;48.008;10.882;2022-10-28T06:30:20;8.40;;;3.08;;
32475;SDS011;18929;48.008;10.882;2022-10-28T06:32:47;8.18;;;2.80;;
32475;SDS011;18929;48.008;10.882;2022-10-28T06:35:14;8.85;;;2.58;;
32475;SDS011;18929;48.008;10.882;2022-10-28T06:37:41;7.88;;;2.45;;
32475;SDS011;18929;48.008;10.882;2022-10-28T06:40:09;16.42;;;6.35;;
32475;SDS011;18929;48.008;10.882;2022-10-28T06:42:37;14.65;;;9.23;;
32475;SDS011;18929;48.008;10.882;2022-10-28T06:45:06;7.18;;;3.42;;
32475;SDS011;18929;48.008;10.882;2022-10-28T06:47:34;6.00;;;2.90;;
32475;SDS011;18929;48.008;10.882;2022-10-28T06:50:01;6.57;;;2.90;;
32475;SDS011;18929;48.008;10.882;2022-10-28T06:52:28;6.15;;;3.03;;
32475;SDS011;18929;48.008;10.882;2022-10-28T06:54:58;9.18;;;3.60;;
32475;SDS011;18929;48.008;10.882;2022-10-28T06:57:25;8.55;;;3.22;;
32475;SDS011;18929;48.008;10.882;2022-10-28T06:59:52;13.88;;;5.72;;
32475;SDS011;18929;48.008;10.882;2022-10-28T07:02:21;11.13;;;4.97;;
32475;SDS011;18929;48.008;10.882;2022-10-28T07:04:48;14.27;;;5.13;;
32475;SDS011;18929;48.008;10.882;2022-10-28T07:07:15;11.32;;;4.47;;
32475;SDS011;18929;48.008;10.882;2022-10-28T07:09:42;13.32;;;3.92;;
32475;SDS011;18929;48.008;10.882;2022-10-28T07:12:09;16.15;;;3.80;;
32475;SDS011;18929;48.008;10.882;2022-10-28T07:14:36;10.55;;;3.80;;
32475;SDS011;18929;48.008;10.882;2022-10-28T07:17:03;12.10;;;4.25;;
32475;SDS011;18929;48.008;10.882;2022-10-28T07:19:31;11.95;;;4.00;;
32475;SDS011;18929;48.008;10.882;2022-10-28T07:21:58;11.38;;;3.50;;
32475;SDS011;18929;48.008;10.882;2022-10-28T07:24:25;11.73;;;3.67;;
32475;SDS011;18929;48.008;10.882;2022-10-28T07:26:52;13.20;;;3.60;;
32475;SDS011;18929;48.008;10.882;2022-10-28T07:29:19;10.00;;;2.70;;
32475;SDS011;18929;48.008;10.882;2022-10-28T07:31:47;8.07;;;2.53;;
32475;SDS011;18929;48.008;10.882;2022-10-28T07:34:14;8.00;;;2.70;;
32475;SDS011;18929;48.008;10.882;2022-10-28T07:36:42;9.82;;;2.80;;
32475;SDS011;18929;48.008;10.882;2022-10-28T07:39:09;9.20;;;2.47;;
32475;SDS011;18929;48.008;10.882;2022-10-28T07:41:36;11.77;;;2.75;;
32475;SDS011;18929;48.008;10.882;2022-10-28T07:44:03;9.57;;;2.35;;
32475;SDS011;18929;48.008;10.882;2022-10-28T07:46:31;7.55;;;2.72;;
32475;SDS011;18929;48.008;10.882;2022-10-28T07:48:58;7.53;;;2.50;;
32475;SDS011;18929;48.008;10.882;2022-10-28T07:51:25;12.85;;;2.78;;
32475;SDS011;18929;48.008;10.882;2022-10-28T07:53:53;12.82;;;2.58;;
32475;SDS011;18929;48.008;10.882;2022-10-28T07:56:20;13.10;;;3.03;;
32475;SDS011;18929;48.008;10.882;2022-10-28T07:58:48;8.82;;;3.00;;
32475;SDS011;18929;48.008;10.882;2022-10-28T08:01:15;9.35;;;3.30;;
32475;SDS011;18929;48.008;10.882;2022-10-28T08:03:44;10.15;;;4.10;;
32475;SDS011;18929;48.008;10.882;2022-10-28T08:06:12;9.98;;;3.08;;
32475;SDS011;18929;48.008;10.882;2022-10-28T08:08:41;8.70;;;3.45;;
32475;SDS011;18929;48.008;10.882;2022-10-28T08:11:11;11.65;;;2.97;;
32475;SDS011;18929;48.008;10.882;2022-10-28T08:13:39;9.40;;;2.50;;
32475;SDS011;18929;48.008;10.882;2022-10-28T08:16:06;13.77;;;2.80;;
32475;SDS011;18929;48.008;10.882;2022-10-28T08:18:34;13.13;;;3.10;;
32475;SDS011;18929;48.008;10.882;2022-10-28T08:21:02;9.18;;;3.05;;
32475;SDS011;18929;48.008;10.882;2022-10-28T08:23:31;11.32;;;2.72;;
32475;SDS011;18929;48.008;10.882;2022-10-28T08:25:58;9.52;;;2.72;;
32475;SDS011;18929;48.008;10.882;2022-10-28T08:28:26;11.48;;;2.78;;
32475;SDS011;18929;48.008;10.882;2022-10-28T08:30:58;10.15;;;2.70;;
32475;SDS011;18929;48.008;10.882;2022-10-28T08:33:26;9.88;;;2.10;;
32475;SDS011;18929;48.008;10.882;2022-10-28T08:35:53;6.85;;;2.60;;
32475;SDS011;18929;48.008;10.882;2022-10-28T08:38:20;11.23;;;2.35;;
32475;SDS011;18929;48.008;10.882;2022-10-28T08:40:48;13.82;;;2.67;;
32475;SDS011;18929;48.008;10.882;2022-10-28T08:43:24;10.32;;;2.40;;
32475;SDS011;18929;48.008;10.882;2022-10-28T08:46:02;9.13;;;2.65;;
32475;SDS011;18929;48.008;10.882;2022-10-28T08:48:35;7.93;;;2.50;;
32475;SDS011;18929;48.008;10.882;2022-10-28T08:51:03;9.40;;;2.50;;
32475;SDS011;18929;48.008;10.882;2022-10-28T08:53:43;6.03;;;2.10;;
32475;SDS011;18929;48.008;10.882;2022-10-28T08:56:13;9.40;;;2.63;;
32475;SDS011;18929;48.008;10.882;2022-10-28T08:58:46;12.05;;;2.53;;
32475;SDS011;18929;48.008;10.882;2022-10-28T09:01:18;6.60;;;2.33;;
32475;SDS011;18929;48.008;10.882;2022-10-28T09:03:55;6.50;;;2.03;;
32475;SDS011;18929;48.008;10.882;2022-10-28T09:06:27;7.20;;;2.38;;
32475;SDS011;18929;48.008;10.882;2022-10-28T09:08:56;7.20;;;2.03;;
32475;SDS011;18929;48.008;10.882;2022-10-28T09:11:32;12.15;;;2.35;;
32475;SDS011;18929;48.008;10.882;2022-10-28T09:14:22;7.00;;;2.00;;
32475;SDS011;18929;48.008;10.882;2022-10-28T09:17:05;6.57;;;2.13;;
32475;SDS011;18929;48.008;10.882;2022-10-28T09:19:44;8.43;;;2.10;;
32475;SDS011;18929;48.008;10.882;2022-10-28T09:22:21;9.80;;;2.53;;
32475;SDS011;18929;48.008;10.882;2022-10-28T09:24:54;12.60;;;2.10;;
32475;SDS011;18929;48.008;10.882;2022-10-28T09:27:31;7.35;;;1.98;;
32475;SDS011;18929;48.008;10.882;2022-10-28T09:30:16;8.27;;;2.25;;
32475;SDS011;18929;48.008;10.882;2022-10-28T09:32:54;6.72;;;1.98;;
32475;SDS011;18929;48.008;10.882;2022-10-28T09:35:30;15.32;;;2.70;;
32475;SDS011;18929;48.008;10.882;2022-10-28T09:38:06;8.65;;;2.13;;
32475;SDS011;18929;48.008;10.882;2022-10-28T09:40:42;6.25;;;2.15;;
32475;SDS011;18929;48.008;10.882;2022-10-28T09:43:16;7.03;;;2.20;;
32475;SDS011;18929;48.008;10.882;2022-10-28T09:45:49;11.38;;;1.95;;
32475;SDS011;18929;48.008;10.882;2022-10-28T09:48:22;8.85;;;1.98;;
32475;SDS011;18929;48.008;10.882;2022-10-28T09:50:53;9.93;;;1.70;;
32475;SDS011;18929;48.008;10.882;2022-10-28T09:53:25;7.63;;;2.17;;
32475;SDS011;18929;48.008;10.882;2022-10-28T09:56:01;9.52;;;1.90;;
32475;SDS011;18929;48.008;10.882;2022-10-28T09:58:28;7.63;;;1.50;;
32475;SDS011;18929;48.008;10.882;2022-10-28T10:00:57;5.75;;;2.05;;
32475;SDS011;18929;48.008;10.882;2022-10-28T10:03:25;9.60;;;2.50;;
32475;SDS011;18929;48.008;10.882;2022-10-28T10:05:52;5.97;;;1.73;;
32475;SDS011;18929;48.008;10.882;2022-10-28T10:08:22;6.70;;;1.65;;
32475;SDS011;18929;48.008;10.882;2022-10-28T10:10:51;7.22;;;1.55;;
32475;SDS011;18929;48.008;10.882;2022-10-28T10:13:22;10.50;;;1.67;;
32475;SDS011;18929;48.008;10.882;2022-10-28T10:15:53;5.07;;;1.40;;
32475;SDS011;18929;48.008;10.882;2022-10-28T10:18:27;7.90;;;2.28;;
32475;SDS011;18929;48.008;10.882;2022-10-28T10:20:57;8.82;;;1.65;;
32475;SDS011;18929;48.008;10.882;2022-10-28T10:23:28;8.13;;;1.52;;
32475;SDS011;18929;48.008;10.882;2022-10-28T10:25:57;7.80;;;1.73;;
32475;SDS011;18929;48.008;10.882;2022-10-28T10:28:27;4.82;;;1.55;;
32475;SDS011;18929;48.008;10.882;2022-10-28T10:30:55;6.65;;;1.52;;
32475;SDS011;18929;48.008;10.882;2022-10-28T10:33:25;7.32;;;1.48;;
32475;SDS011;18929;48.008;10.882;2022-10-28T10:35:55;7.97;;;1.70;;
32475;SDS011;18929;48.008;10.882;2022-10-28T10:38:24;6.03;;;1.38;;
32475;SDS011;18929;48.008;10.882;2022-10-28T10:40:53;3.97;;;1.10;;
32475;SDS011;18929;48.008;10.882;2022-10-28T10:43:21;8.55;;;1.40;;
32475;SDS011;18929;48.008;10.882;2022-10-28T10:45:58;8.23;;;1.55;;
32475;SDS011;18929;48.008;10.882;2022-10-28T10:48:27;5.97;;;1.30;;
32475;SDS011;18929;48.008;10.882;2022-10-28T10:50:56;11.52;;;1.50;;
32475;SDS011;18929;48.008;10.882;2022-10-28T10:53:24;3.38;;;1.20;;
32475;SDS011;18929;48.008;10.882;2022-10-28T10:55:53;8.98;;;1.48;;
32475;SDS011;18929;48.008;10.882;2022-10-28T10:58:23;6.50;;;1.60;;
32475;SDS011;18929;48.008;10.882;2022-10-28T11:00:53;6.55;;;2.00;;
32475;SDS011;18929;48.008;10.882;2022-10-28T11:03:23;5.07;;;2.00;;
32475;SDS011;18929;48.008;10.882;2022-10-28T11:05:55;5.15;;;1.50;;
32475;SDS011;18929;48.008;10.882;2022-10-28T11:08:28;10.40;;;2.88;;
32475;SDS011;18929;48.008;10.882;2022-10-28T11:11:06;7.63;;;1.33;;
32475;SDS011;18929;48.008;10.882;2022-10-28T11:13:38;8.32;;;2.17;;
32475;SDS011;18929;48.008;10.882;2022-10-28T11:16:06;6.90;;;1.33;;
32475;SDS011;18929;48.008;10.882;2022-10-28T11:18:45;3.65;;;1.20;;
32475;SDS011;18929;48.008;10.882;2022-10-28T11:21:21;8.80;;;1.40;;
32475;SDS011;18929;48.008;10.882;2022-10-28T11:24:11;11.55;;;1.60;;
32475;SDS011;18929;48.008;10.882;2022-10-28T11:26:59;5.22;;;1.08;;
32475;SDS011;18929;48.008;10.882;2022-10-28T11:29:34;6.90;;;1.30;;
32475;SDS011;18929;48.008;10.882;2022-10-28T11:34:51;5.47;;;1.17;;
32475;SDS011;18929;48.008;10.882;2022-10-28T11:37:48;4.63;;;1.35;;
32475;SDS011;18929;48.008;10.882;2022-10-28T11:40:26;6.53;;;1.10;;
32475;SDS011;18929;48.008;10.882;2022-10-28T11:43:03;8.45;;;1.30;;
32475;SDS011;18929;48.008;10.882;2022-10-28T11:45:41;4.05;;;1.15;;
32475;SDS011;18929;48.008;10.882;2022-10-28T11:48:18;7.32;;;1.45;;
32475;SDS011;18929;48.008;10.882;2022-10-28T11:50:52;6.53;;;1.25;;
32475;SDS011;18929;48.008;10.882;2022-10-28T11:53:35;9.98;;;1.75;;
32475;SDS011;18929;48.008;10.882;2022-10-28T11:56:16;3.63;;;1.40;;
32475;SDS011;18929;48.008;10.882;2022-10-28T11:58:55;5.20;;;1.48;;
32475;SDS011;18929;48.008;10.882;2022-10-28T12:01:40;8.75;;;1.67;;
32475;SDS011;18929;48.008;10.882;2022-10-28T12:07:04;8.45;;;1.92;;
32475;SDS011;18929;48.008;10.882;2022-10-28T12:09:50;14.23;;;6.10;;
32475;SDS011;18929;48.008;10.882;2022-10-28T12:12:31;5.85;;;1.85;;
32475;SDS011;18929;48.008;10.882;2022-10-28T12:15:08;10.57;;;3.78;;
32475;SDS011;18929;48.008;10.882;2022-10-28T12:17:43;9.82;;;3.58;;
32475;SDS011;18929;48.008;10.882;2022-10-28T12:20:17;7.95;;;1.90;;
32475;SDS011;18929;48.008;10.882;2022-10-28T12:22:49;8.80;;;1.27;;
32475;SDS011;18929;48.008;10.882;2022-10-28T12:25:21;4.07;;;1.60;;
32475;SDS011;18929;48.008;10.882;2022-10-28T12:27:53;4.40;;;1.85;;
32475;SDS011;18929;48.008;10.882;2022-10-28T12:30:25;5.82;;;1.30;;
32475;SDS011;18929;48.008;10.882;2022-10-28T12:32:55;9.73;;;1.30;;
32475;SDS011;18929;48.008;10.882;2022-10-28T12:35:27;10.30;;;1.10;;
32475;SDS011;18929;48.008;10.882;2022-10-28T12:37:59;6.88;;;1.42;;
32475;SDS011;18929;48.008;10.882;2022-10-28T12:40:36;6.40;;;1.25;;
32475;SDS011;18929;48.008;10.882;2022-10-28T12:43:09;5.07;;;1.20;;
32475;SDS011;18929;48.008;10.882;2022-10-28T12:45:41;8.93;;;1.50;;
32475;SDS011;18929;48.008;10.882;2022-10-28T12:48:12;10.05;;;3.83;;
32475;SDS011;18929;48.008;10.882;2022-10-28T12:50:43;5.78;;;1.38;;
32475;SDS011;18929;48.008;10.882;2022-10-28T12:53:18;6.32;;;1.08;;
32475;SDS011;18929;48.008;10.882;2022-10-28T12:55:58;6.25;;;1.40;;
32475;SDS011;18929;48.008;10.882;2022-10-28T12:58:28;7.80;;;1.50;;
32475;SDS011;18929;48.008;10.882;2022-10-28T13:00:59;5.93;;;1.35;;
32475;SDS011;18929;48.008;10.882;2022-10-28T13:03:29;10.07;;;1.75;;
32475;SDS011;18929;48.008;10.882;2022-10-28T13:06:01;7.47;;;1.52;;
32475;SDS011;18929;48.008;10.882;2022-10-28T13:11:59;7.65;;;1.50;;
32475;SDS011;18929;48.008;10.882;2022-10-28T13:15:06;13.50;;;1.67;;
32475;SDS011;18929;48.008;10.882;2022-10-28T13:18:02;10.20;;;2.22;;
32475;SDS011;18929;48.008;10.882;2022-10-28T13:20:41;9.93;;;1.83;;
32475;SDS011;18929;48.008;10.882;2022-10-28T13:23:15;6.63;;;1.88;;
32475;SDS011;18929;48.008;10.882;2022-10-28T13:26:03;8.43;;;2.25;;
32475;SDS011;18929;48.008;10.882;2022-10-28T13:28:42;6.45;;;2.03;;
32475;SDS011;18929;48.008;10.882;2022-10-28T13:33:45;10.02;;;1.90;;
32475;SDS011;18929;48.008;10.882;2022-10-28T13:36:16;7.47;;;2.03;;
32475;SDS011;18929;48.008;10.882;2022-10-28T13:38:48;5.60;;;2.10;;
32475;SDS011;18929;48.008;10.882;2022-10-28T13:41:25;10.63;;;1.90;;
32475;SDS011;18929;48.008;10.882;2022-10-28T13:50:07;8.25;;;1.75;;
32475;SDS011;18929;48.008;10.882;2022-10-28T13:55:49;13.45;;;1.98;;
32475;SDS011;18929;48.008;10.882;2022-10-28T13:58:23;9.85;;;2.00;;
32475;SDS011;18929;48.008;10.882;2022-10-28T14:00:52;8.18;;;2.05;;
32475;SDS011;18929;48.008;10.882;2022-10-28T14:03:20;18.70;;;2.47;;
32475;SDS011;18929;48.008;10.882;2022-10-28T14:05:50;11.98;;;2.10;;
32475;SDS011;18929;48.008;10.882;2022-10-28T14:08:20;11.73;;;1.98;;
32475;SDS011;18929;48.008;10.882;2022-10-28T14:11:01;10.80;;;2.08;;
32475;SDS011;18929;48.008;10.882;2022-10-28T14:13:30;12.45;;;2.20;;
32475;SDS011;18929;48.008;10.882;2022-10-28T14:18:57;6.57;;;2.08;;
32475;SDS011;18929;48.008;10.882;2022-10-28T14:21:39;12.60;;;1.90;;
32475;SDS011;18929;48.008;10.882;2022-10-28T14:24:11;7.28;;;1.80;;
32475;SDS011;18929;48.008;10.882;2022-10-28T14:30:12;6.50;;;2.15;;
32475;SDS011;18929;48.008;10.882;2022-10-28T14:32:54;7.20;;;2.28;;
32475;SDS011;18929;48.008;10.882;2022-10-28T14:35:27;8.55;;;1.90;;
32475;SDS011;18929;48.008;10.882;2022-10-28T14:38:07;10.90;;;1.83;;
32475;SDS011;18929;48.008;10.882;2022-10-28T14:41:09;8.73;;;1.80;;
32475;SDS011;18929;48.008;10.882;2022-10-28T14:43:46;8.55;;;1.73;;
32475;SDS011;18929;48.008;10.882;2022-10-28T14:46:33;8.50;;;1.80;;
32475;SDS011;18929;48.008;10.882;2022-10-28T14:49:15;12.00;;;2.08;;
32475;SDS011;18929;48.008;10.882;2022-10-28T14:51:45;10.77;;;1.83;;
32475;SDS011;18929;48.008;10.882;2022-10-28T14:54:14;8.90;;;2.13;;
32475;SDS011;18929;48.008;10.882;2022-10-28T14:56:43;8.77;;;1.70;;
32475;SDS011;18929;48.008;10.882;2022-10-28T15:01:58;6.78;;;2.65;;
32475;SDS011;18929;48.008;10.882;2022-10-28T15:04:29;7.80;;;1.83;;
32475;SDS011;18929;48.008;10.882;2022-10-28T15:06:56;10.82;;;2.30;;
32475;SDS011;18929;48.008;10.882;2022-10-28T15:09:26;9.98;;;2.10;;
32475;SDS011;18929;48.008;10.882;2022-10-28T15:11:55;10.88;;;2.50;;
32475;SDS011;18929;48.008;10.882;2022-10-28T15:14:30;7.53;;;1.93;;
32475;SDS011;18929;48.008;10.882;2022-10-28T15:17:02;9.07;;;2.10;;
32475;SDS011;18929;48.008;10.882;2022-10-28T15:19:37;10.63;;;2.47;;
32475;SDS011;18929;48.008;10.882;2022-10-28T15:22:15;9.15;;;2.25;;
32475;SDS011;18929;48.008;10.882;2022-10-28T15:24:51;4.75;;;2.10;;
32475;SDS011;18929;48.008;10.882;2022-10-28T15:27:23;10.80;;;2.15;;